Time;durP1;ratioP1;P1;durP2;ratioP2;P2;SDS_P1;SDS_P2;PMS_P1;PMS_P2;Temp;Humidity;BMP_temperature;BMP_pressure;BME280_temperature;BME280_humidity;BME280_pressure;Samples;Min_cycle;Max_cycle;Signal;HPM_P1;HPM_P2
2021/12/04 04:16:12;;;;;;;129.25;40.78;;;;;;;;;;5124823;27;20325;-81
2021/12/04 04:18:39;;;;;;;124.78;42.00;;;;;;;;;;5106140;28;20077;-81
2021/12/04 04:21:05;;;;;;;143.40;43.47;;;;;;;;;;5109004;28;20034;-81
2021/12/04 04:23:32;;;;;;;146.45;39.70;;;;;;;;;;5105408;28;20029;-81
2021/12/04 04:25:58;;;;;;;137.00;40.95;;;;;;;;;;5099420;28;20051;-81
2021/12/04 04:28:24;;;;;;;132.77;39.17;;;;;;;;;;5107751;28;20024;-81
2021/12/04 04:30:52;;;;;;;119.53;40.05;;;;;;;;;;5109330;28;20028;-81
2021/12/04 04:33:18;;;;;;;129.32;41.00;;;;;;;;;;5109514;28;20047;-81
2021/12/04 04:35:50;;;;;;;137.80;40.50;;;;;;;;;;5107366;28;20038;-81
2021/12/04 04:38:30;;;;;;;135.15;40.17;;;;;;;;;;5104063;28;20019;-81
2021/12/04 04:57:38;;;;;;;98.95;25.88;;;;;;;;;;5100844;28;20094;-82
2021/12/04 05:00:17;;;;;;;93.78;28.50;;;;;;;;;;5104380;28;20462;-82
2021/12/04 05:11:04;;;;;;;96.38;27.85;;;;;;;;;;5097826;28;20045;-81
2021/12/04 05:13:30;;;;;;;113.80;29.75;;;;;;;;;;5109801;28;20023;-81
2021/12/04 05:15:58;;;;;;;102.28;26.00;;;;;;;;;;5109448;28;20518;-81
2021/12/04 05:21:04;;;;;;;97.20;28.40;;;;;;;;;;5105888;28;20028;-84
2021/12/04 05:23:32;;;;;;;121.57;30.10;;;;;;;;;;5053643;28;20421;-81
2021/12/04 05:25:59;;;;;;;95.47;25.02;;;;;;;;;;5014980;28;20030;-82
2021/12/04 05:28:26;;;;;;;104.85;26.65;;;;;;;;;;5024526;28;20123;-83
2021/12/04 05:30:52;;;;;;;105.43;28.83;;;;;;;;;;5016274;28;20492;-83
2021/12/04 05:33:19;;;;;;;110.78;29.55;;;;;;;;;;5006234;28;20030;-82
2021/12/04 05:35:47;;;;;;;110.20;28.80;;;;;;;;;;5008995;28;20112;-82
2021/12/04 05:38:15;;;;;;;96.28;27.30;;;;;;;;;;5006556;28;20072;-81
2021/12/04 05:40:41;;;;;;;109.88;29.10;;;;;;;;;;5007135;28;20481;-81
2021/12/04 05:43:08;;;;;;;94.00;28.73;;;;;;;;;;5028002;28;20061;-81
2021/12/04 05:45:39;;;;;;;98.93;28.35;;;;;;;;;;5008320;28;20034;-81
2021/12/04 05:48:12;;;;;;;95.25;28.65;;;;;;;;;;5000392;28;20172;-82
2021/12/04 05:53:56;;;;;;;99.40;27.98;;;;;;;;;;5010005;28;20486;-81
2021/12/04 05:56:34;;;;;;;109.55;27.67;;;;;;;;;;4980789;28;20031;-79
2021/12/04 05:59:00;;;;;;;83.00;26.60;;;;;;;;;;5012392;28;20140;-79
2021/12/04 06:01:29;;;;;;;82.30;24.20;;;;;;;;;;5004782;28;20029;-79
2021/12/04 06:03:55;;;;;;;90.40;26.20;;;;;;;;;;5013424;28;20018;-79
2021/12/04 06:06:22;;;;;;;95.20;25.88;;;;;;;;;;5010689;28;20374;-79
2021/12/04 06:08:49;;;;;;;118.22;31.00;;;;;;;;;;5013053;28;20503;-79
2021/12/04 06:11:15;;;;;;;117.57;32.38;;;;;;;;;;5014427;28;20053;-79
2021/12/04 06:13:43;;;;;;;120.47;35.65;;;;;;;;;;5011217;28;20042;-80
2021/12/04 06:16:09;;;;;;;115.28;33.10;;;;;;;;;;5013556;28;20099;-80
2021/12/04 06:18:38;;;;;;;113.47;34.78;;;;;;;;;;5005650;28;20022;-80
2021/12/04 06:23:50;;;;;;;122.15;34.40;;;;;;;;;;5015110;28;20072;-80
2021/12/04 06:26:16;;;;;;;110.82;33.63;;;;;;;;;;5011477;28;20131;-80
2021/12/04 06:28:44;;;;;;;100.70;33.28;;;;;;;;;;5006494;28;20029;-80
2021/12/04 06:31:11;;;;;;;122.43;33.92;;;;;;;;;;5013711;28;20061;-80
2021/12/04 06:33:38;;;;;;;114.28;35.10;;;;;;;;;;5010188;28;20604;-81
2021/12/04 06:36:09;;;;;;;111.15;32.22;;;;;;;;;;4993969;28;20030;-79
2021/12/04 06:38:36;;;;;;;114.13;35.00;;;;;;;;;;4993019;28;20034;-80
2021/12/04 06:41:02;;;;;;;122.22;35.95;;;;;;;;;;5008204;28;20030;-80
2021/12/04 06:43:29;;;;;;;119.03;35.60;;;;;;;;;;5013558;28;20030;-79
2021/12/04 06:46:01;;;;;;;127.38;36.88;;;;;;;;;;5013361;28;20160;-79
2021/12/04 06:49:14;;;;;;;104.45;35.55;;;;;;;;;;5013293;28;20026;-80
2021/12/04 06:51:26;;;;;;;133.93;35.78;;;;;;;;;;5013639;28;20030;-80
2021/12/04 06:56:37;;;;;;;153.02;42.08;;;;;;;;;;5005722;28;20022;-80
2021/12/04 06:59:07;;;;;;;134.38;39.67;;;;;;;;;;5012990;28;20022;-80
2021/12/04 07:01:39;;;;;;;140.27;41.90;;;;;;;;;;5009790;28;20126;-80
2021/12/04 07:04:06;;;;;;;146.25;41.25;;;;;;;;;;4993512;28;20031;-80
2021/12/04 07:06:33;;;;;;;143.57;43.25;;;;;;;;;;5001331;28;20488;-80
2021/12/04 07:08:59;;;;;;;132.85;41.33;;;;;;;;;;5029433;28;20018;-80
2021/12/04 07:11:27;;;;;;;145.15;43.92;;;;;;;;;;5019780;28;20029;-81
2021/12/04 07:13:53;;;;;;;129.82;44.35;;;;;;;;;;5007475;28;20026;-82
2021/12/04 07:16:23;;;;;;;149.68;44.03;;;;;;;;;;4992877;28;20030;-81
2021/12/04 07:19:03;;;;;;;147.32;43.72;;;;;;;;;;4992891;28;20023;-81
2021/12/04 07:21:30;;;;;;;149.45;46.42;;;;;;;;;;4999814;28;20026;-81
2021/12/04 07:23:58;;;;;;;149.43;45.28;;;;;;;;;;5008696;28;20030;-81
2021/12/04 07:26:25;;;;;;;158.35;46.58;;;;;;;;;;5012299;28;20043;-81
2021/12/04 07:28:59;;;;;;;155.48;48.85;;;;;;;;;;5025560;28;20417;-81
2021/12/04 07:31:25;;;;;;;176.93;51.30;;;;;;;;;;5013916;28;20026;-81
2021/12/04 07:33:58;;;;;;;154.05;45.60;;;;;;;;;;5012687;28;20033;-81
2021/12/04 07:36:24;;;;;;;150.70;49.65;;;;;;;;;;5012478;28;20075;-81
2021/12/04 07:38:54;;;;;;;165.10;51.22;;;;;;;;;;5010689;28;20022;-81
2021/12/04 07:41:21;;;;;;;166.32;50.13;;;;;;;;;;5011814;28;20018;-82
2021/12/04 07:43:48;;;;;;;188.60;55.33;;;;;;;;;;5011756;28;20080;-82
2021/12/04 07:46:15;;;;;;;182.93;57.70;;;;;;;;;;5012058;28;20112;-82
2021/12/04 07:48:41;;;;;;;179.77;59.47;;;;;;;;;;5008720;28;20027;-82
2021/12/04 07:51:09;;;;;;;156.10;55.92;;;;;;;;;;5009495;28;20476;-82
2021/12/04 07:53:35;;;;;;;184.52;57.03;;;;;;;;;;5012085;28;20026;-82
2021/12/04 07:56:07;;;;;;;171.98;62.00;;;;;;;;;;5010794;28;20045;-82
2021/12/04 07:58:34;;;;;;;166.55;57.45;;;;;;;;;;5010670;28;20105;-82
2021/12/04 08:01:00;;;;;;;175.40;57.45;;;;;;;;;;5008686;28;20385;-82
2021/12/04 08:03:28;;;;;;;196.02;60.20;;;;;;;;;;5011215;28;20044;-82
2021/12/04 08:05:55;;;;;;;185.85;61.53;;;;;;;;;;5022252;28;20030;-82
2021/12/04 08:08:43;;;;;;;181.00;60.90;;;;;;;;;;5010767;28;20022;-82
2021/12/04 08:11:09;;;;;;;177.20;62.58;;;;;;;;;;5026312;28;20026;-82
2021/12/04 08:13:36;;;;;;;192.55;59.58;;;;;;;;;;5008310;28;20026;-82
2021/12/04 08:16:02;;;;;;;162.60;58.72;;;;;;;;;;5005916;28;20046;-82
2021/12/04 08:18:32;;;;;;;183.02;64.75;;;;;;;;;;5000902;28;20388;-82
2021/12/04 08:20:59;;;;;;;183.15;63.70;;;;;;;;;;5024509;28;20057;-82
2021/12/04 08:23:28;;;;;;;204.45;65.70;;;;;;;;;;5007368;28;20022;-82
2021/12/04 08:25:56;;;;;;;184.52;62.72;;;;;;;;;;5012042;28;20026;-82
2021/12/04 08:28:26;;;;;;;215.80;65.07;;;;;;;;;;5011310;28;20501;-82
2021/12/04 08:30:52;;;;;;;204.82;69.18;;;;;;;;;;5009839;28;20033;-82
2021/12/04 08:33:24;;;;;;;191.35;66.00;;;;;;;;;;5011094;28;20017;-82
2021/12/04 08:35:50;;;;;;;189.65;65.20;;;;;;;;;;4999088;28;20026;-82
2021/12/04 08:38:32;;;;;;;190.63;65.65;;;;;;;;;;5007621;28;20030;-82
2021/12/04 08:40:59;;;;;;;168.30;62.50;;;;;;;;;;5024990;28;20023;-82
2021/12/04 08:43:28;;;;;;;190.35;63.25;;;;;;;;;;5007983;28;20053;-82
2021/12/04 08:45:55;;;;;;;188.32;64.32;;;;;;;;;;4991988;28;20026;-82
2021/12/04 08:48:26;;;;;;;196.90;68.78;;;;;;;;;;4993096;28;20054;-82
2021/12/04 08:50:52;;;;;;;197.57;68.82;;;;;;;;;;5028283;28;20087;-82
2021/12/04 08:53:28;;;;;;;198.23;69.88;;;;;;;;;;5011802;28;20036;-83
2021/12/04 08:55:54;;;;;;;196.13;69.88;;;;;;;;;;5011675;28;20060;-82
2021/12/04 08:58:22;;;;;;;206.85;76.18;;;;;;;;;;5019347;28;20396;-83
2021/12/04 09:00:59;;;;;;;186.90;68.40;;;;;;;;;;5024559;28;20057;-82
2021/12/04 09:03:38;;;;;;;210.02;72.50;;;;;;;;;;5014979;28;20026;-82
2021/12/04 09:06:06;;;;;;;180.18;67.88;;;;;;;;;;5011939;28;20035;-83
2021/12/04 09:08:32;;;;;;;183.52;68.05;;;;;;;;;;5008313;28;20044;-82
2021/12/04 09:11:00;;;;;;;196.32;71.22;;;;;;;;;;5011101;28;20054;-83
2021/12/04 09:13:28;;;;;;;205.43;72.68;;;;;;;;;;5008931;28;20243;-83
2021/12/04 09:15:57;;;;;;;211.88;78.68;;;;;;;;;;5005209;28;20042;-83
2021/12/04 09:18:25;;;;;;;192.30;74.50;;;;;;;;;;5007207;28;20040;-84
2021/12/04 09:20:53;;;;;;;201.52;74.78;;;;;;;;;;5010123;28;20025;-83
2021/12/04 09:23:31;;;;;;;215.02;78.43;;;;;;;;;;5013393;28;20097;-83
2021/12/04 09:26:01;;;;;;;197.13;74.47;;;;;;;;;;5030496;28;20045;-83
2021/12/04 09:28:57;;;;;;;203.32;72.20;;;;;;;;;;5014119;28;20038;-83
2021/12/04 09:31:44;;;;;;;180.55;71.75;;;;;;;;;;4995647;28;20704;-83
2021/12/04 09:35:11;;;;;;;206.63;72.50;;;;;;;;;;5013819;28;20037;-83
2021/12/04 10:13:31;;;;;;;152.05;49.22;;;;;;;;;;4996726;28;20104;-84
2021/12/04 10:21:17;;;;;;;143.77;42.47;;;;;;;;;;5004284;28;20022;-84
2021/12/04 10:35:20;;;;;;;158.35;48.05;;;;;;;;;;5005062;28;20144;-85
2021/12/04 10:37:48;;;;;;;151.60;48.83;;;;;;;;;;5022444;28;20192;-85
2021/12/04 10:40:15;;;;;;;189.00;51.70;;;;;;;;;;5013172;28;20034;-85
2021/12/04 10:43:01;;;;;;;145.02;46.05;;;;;;;;;;5008706;28;20028;-85
2021/12/04 10:45:33;;;;;;;165.10;51.40;;;;;;;;;;5004032;28;20040;-85
2021/12/04 10:48:01;;;;;;;146.27;47.20;;;;;;;;;;5009424;28;20030;-84
2021/12/04 10:50:37;;;;;;;134.60;48.60;;;;;;;;;;4996404;28;20068;-81
2021/12/04 10:53:11;;;;;;;149.27;49.35;;;;;;;;;;5014188;28;20770;-81
2021/12/04 11:01:25;;;;;;;179.38;64.82;;;;;;;;;;5000477;28;20030;-81
2021/12/04 11:36:29;;;;;;;220.27;82.93;;;;;;;;;;5006444;28;20092;-82
2021/12/04 11:44:12;;;;;;;198.32;74.13;;;;;;;;;;5008577;28;20018;-86
2021/12/04 11:49:16;;;;;;;195.15;64.93;;;;;;;;;;5000641;28;20030;-85
2021/12/04 11:52:04;;;;;;;230.98;71.63;;;;;;;;;;5009719;28;20022;-85
2021/12/04 11:54:48;;;;;;;205.77;62.60;;;;;;;;;;5005269;28;20030;-85
2021/12/04 11:57:18;;;;;;;179.25;58.58;;;;;;;;;;4995322;28;20038;-85
2021/12/04 11:59:45;;;;;;;225.73;68.40;;;;;;;;;;5010251;28;20978;-85
2021/12/04 12:02:22;;;;;;;232.63;71.75;;;;;;;;;;5007850;28;20026;-86
2021/12/04 12:04:54;;;;;;;160.90;58.60;;;;;;;;;;5002073;28;20030;-85
2021/12/04 12:07:25;;;;;;;206.30;66.53;;;;;;;;;;5007273;28;20121;-87
2021/12/04 12:10:04;;;;;;;219.57;62.90;;;;;;;;;;5022355;28;20049;-86
2021/12/04 12:12:34;;;;;;;225.15;72.70;;;;;;;;;;5007292;28;20032;-87
2021/12/04 12:15:04;;;;;;;227.20;70.68;;;;;;;;;;5010752;28;20040;-87
2021/12/04 12:17:30;;;;;;;234.88;74.95;;;;;;;;;;5008711;28;20049;-87
2021/12/04 12:19:59;;;;;;;288.67;85.28;;;;;;;;;;5009710;28;20038;-87
2021/12/04 12:25:35;;;;;;;317.95;108.93;;;;;;;;;;5013304;28;20040;-87
2021/12/04 12:34:09;;;;;;;301.25;109.40;;;;;;;;;;5008848;28;20552;-84
2021/12/04 12:36:33;;;;;;;300.27;108.75;;;;;;;;;;5005533;28;20046;-85
2021/12/04 12:39:16;;;;;;;344.15;116.55;;;;;;;;;;5010953;28;20064;-84
2021/12/04 12:41:43;;;;;;;293.90;110.53;;;;;;;;;;5020535;28;20455;-85
2021/12/04 12:44:14;;;;;;;327.52;112.00;;;;;;;;;;5009135;28;20034;-85
2021/12/04 12:46:46;;;;;;;309.42;102.72;;;;;;;;;;5013611;28;20122;-85
2021/12/04 12:49:34;;;;;;;255.00;89.88;;;;;;;;;;5012907;28;20389;-84
2021/12/04 12:52:01;;;;;;;258.00;87.80;;;;;;;;;;5012620;28;20420;-84
2021/12/04 12:54:34;;;;;;;283.92;98.32;;;;;;;;;;5012192;28;20053;-82
2021/12/04 12:57:08;;;;;;;240.38;85.55;;;;;;;;;;5013748;28;20104;-85
2021/12/04 13:14:09;;;;;;;229.60;84.13;;;;;;;;;;5008271;28;20077;-84
2021/12/04 13:16:37;;;;;;;206.27;80.47;;;;;;;;;;5013944;28;20133;-84
2021/12/04 13:19:15;;;;;;;247.50;88.15;;;;;;;;;;5011226;28;20366;-84
2021/12/04 13:21:46;;;;;;;244.70;89.78;;;;;;;;;;5022303;28;20033;-84
2021/12/04 13:24:18;;;;;;;197.10;77.82;;;;;;;;;;5008028;28;20027;-84
2021/12/04 13:26:47;;;;;;;208.35;79.72;;;;;;;;;;5021761;28;20018;-85
2021/12/04 13:29:17;;;;;;;180.50;76.13;;;;;;;;;;5029845;28;20107;-85
2021/12/04 13:31:46;;;;;;;168.23;70.05;;;;;;;;;;5004479;28;20121;-85
2021/12/04 13:34:24;;;;;;;211.02;81.65;;;;;;;;;;5007974;28;20053;-85
2021/12/04 13:36:53;;;;;;;209.95;81.88;;;;;;;;;;5004457;28;20034;-85
2021/12/04 13:39:27;;;;;;;177.93;78.63;;;;;;;;;;5011650;28;20101;-85
2021/12/04 13:41:54;;;;;;;186.45;76.47;;;;;;;;;;5013108;28;20038;-85
2021/12/04 13:44:26;;;;;;;225.23;86.97;;;;;;;;;;5007302;28;20030;-84
2021/12/04 13:46:59;;;;;;;240.45;95.07;;;;;;;;;;4992902;28;20041;-84
2021/12/04 13:49:33;;;;;;;240.75;92.72;;;;;;;;;;5011275;28;20115;-85
2021/12/04 13:52:13;;;;;;;226.98;95.15;;;;;;;;;;5013085;28;20034;-85
2021/12/04 13:54:46;;;;;;;237.30;95.65;;;;;;;;;;5022985;28;20428;-85
2021/12/04 13:57:15;;;;;;;251.20;99.55;;;;;;;;;;5007154;28;20030;-83
2021/12/04 13:59:43;;;;;;;278.13;106.65;;;;;;;;;;5012651;28;20113;-84
2021/12/04 14:02:22;;;;;;;275.83;103.60;;;;;;;;;;5003152;28;20409;-84
2021/12/04 14:04:59;;;;;;;312.52;108.07;;;;;;;;;;5013581;28;20034;-84
2021/12/04 14:07:30;;;;;;;356.75;120.78;;;;;;;;;;5010655;28;20037;-83
2021/12/04 14:09:56;;;;;;;356.33;116.18;;;;;;;;;;5015603;28;20040;-84
2021/12/04 14:12:24;;;;;;;401.48;127.47;;;;;;;;;;5007296;28;20121;-83
2021/12/04 14:14:55;;;;;;;350.40;120.00;;;;;;;;;;5007580;28;20097;-83
2021/12/04 14:17:22;;;;;;;416.02;129.70;;;;;;;;;;5021519;28;20073;-83
2021/12/04 14:19:56;;;;;;;454.75;137.05;;;;;;;;;;5006095;28;20030;-82
2021/12/04 14:22:23;;;;;;;326.80;114.20;;;;;;;;;;5012102;28;20033;-82
2021/12/04 14:27:38;;;;;;;325.88;114.40;;;;;;;;;;5013273;28;20481;-84
2021/12/04 14:30:12;;;;;;;289.90;102.78;;;;;;;;;;5011559;28;20130;-84
2021/12/04 14:32:40;;;;;;;321.25;114.63;;;;;;;;;;5012453;28;20489;-84
2021/12/04 14:35:26;;;;;;;288.90;103.80;;;;;;;;;;5001598;28;20041;-84
2021/12/04 14:37:54;;;;;;;288.13;104.70;;;;;;;;;;5029308;28;20033;-84
2021/12/04 14:40:42;;;;;;;287.90;102.15;;;;;;;;;;5009784;28;20092;-84
2021/12/04 14:43:25;;;;;;;287.63;106.65;;;;;;;;;;5009350;28;20026;-83
2021/12/04 14:45:59;;;;;;;322.52;109.82;;;;;;;;;;5024045;28;20026;-84
2021/12/04 14:49:02;;;;;;;354.52;109.85;;;;;;;;;;5007224;28;20030;-83
2021/12/04 14:51:28;;;;;;;361.48;114.95;;;;;;;;;;5010106;28;20080;-84
2021/12/04 14:54:10;;;;;;;332.55;111.72;;;;;;;;;;5012204;28;20668;-84
2021/12/04 14:56:37;;;;;;;358.35;115.25;;;;;;;;;;5025912;28;20026;-81
2021/12/04 14:59:14;;;;;;;437.23;132.27;;;;;;;;;;5009037;28;20457;-81
2021/12/04 15:01:41;;;;;;;377.67;121.32;;;;;;;;;;5011012;28;20032;-83
2021/12/04 15:04:09;;;;;;;397.80;121.47;;;;;;;;;;5007653;28;20049;-84
2021/12/04 15:06:38;;;;;;;486.75;140.05;;;;;;;;;;5013421;28;20018;-84
2021/12/04 15:09:09;;;;;;;488.13;138.25;;;;;;;;;;5011494;28;20080;-84
2021/12/04 15:11:36;;;;;;;379.25;125.50;;;;;;;;;;5018618;28;20025;-84
2021/12/04 15:14:31;;;;;;;410.60;123.45;;;;;;;;;;5009000;28;20117;-84
2021/12/04 15:17:01;;;;;;;393.38;132.15;;;;;;;;;;5015712;28;20046;-85
2021/12/04 15:19:44;;;;;;;423.90;128.20;;;;;;;;;;5007956;28;20026;-84
2021/12/04 15:22:18;;;;;;;418.35;132.20;;;;;;;;;;5003344;28;20033;-85
2021/12/04 15:24:45;;;;;;;366.40;129.40;;;;;;;;;;5011689;28;20025;-84
2021/12/04 15:27:14;;;;;;;434.10;144.55;;;;;;;;;;5024996;28;20120;-84
2021/12/04 15:29:47;;;;;;;492.05;161.45;;;;;;;;;;5021517;28;20030;-84
2021/12/04 15:32:23;;;;;;;391.20;135.45;;;;;;;;;;5008907;28;20025;-85
2021/12/04 15:34:57;;;;;;;478.23;157.93;;;;;;;;;;5008902;28;20029;-83
2021/12/04 15:37:27;;;;;;;439.75;160.80;;;;;;;;;;5012181;28;20034;-86
2021/12/04 15:39:54;;;;;;;430.60;160.18;;;;;;;;;;5008575;28;20029;-86
2021/12/04 15:42:30;;;;;;;432.05;164.98;;;;;;;;;;5008814;28;20036;-86
2021/12/04 15:45:52;;;;;;;473.63;169.15;;;;;;;;;;5011031;28;20069;-86
2021/12/04 15:54:02;;;;;;;317.98;132.52;;;;;;;;;;5057666;28;20650;-85
2021/12/04 15:56:35;;;;;;;330.25;134.45;;;;;;;;;;5054075;28;20047;-85
2021/12/04 15:59:20;;;;;;;352.52;143.40;;;;;;;;;;5041057;28;20128;-85
2021/12/04 16:01:56;;;;;;;340.52;135.75;;;;;;;;;;5036716;28;20472;-86
2021/12/04 16:04:29;;;;;;;361.48;149.57;;;;;;;;;;5032541;28;20025;-84
2021/12/04 16:06:57;;;;;;;382.45;154.27;;;;;;;;;;5048651;28;20092;-85
2021/12/04 16:09:31;;;;;;;360.15;149.70;;;;;;;;;;5034326;28;20032;-85
2021/12/04 16:12:09;;;;;;;343.63;144.85;;;;;;;;;;5052843;28;20068;-86
2021/12/04 16:14:40;;;;;;;356.50;150.30;;;;;;;;;;5042865;28;20487;-85
2021/12/04 16:17:07;;;;;;;317.38;134.38;;;;;;;;;;5029280;28;20025;-85
2021/12/04 16:19:49;;;;;;;387.70;146.95;;;;;;;;;;5048434;28;20033;-85
2021/12/04 16:22:17;;;;;;;316.35;136.65;;;;;;;;;;5050486;28;20384;-85
2021/12/04 16:24:47;;;;;;;327.17;138.00;;;;;;;;;;5032424;28;20029;-81
2021/12/04 16:27:19;;;;;;;397.00;159.70;;;;;;;;;;5020585;28;20044;-81
2021/12/04 16:33:50;;;;;;;372.95;145.23;;;;;;;;;;5032154;28;20029;-82
2021/12/04 16:36:05;;;;;;;328.70;128.43;;;;;;;;;;5040516;28;20040;-81
2021/12/04 16:38:31;;;;;;;304.92;122.60;;;;;;;;;;5030918;28;20029;-80
2021/12/04 16:41:02;;;;;;;259.10;111.95;;;;;;;;;;5032338;28;20045;-81
2021/12/04 16:43:34;;;;;;;253.05;103.97;;;;;;;;;;5050720;28;20056;-81
2021/12/04 16:46:12;;;;;;;332.05;118.05;;;;;;;;;;5046088;28;20037;-80
2021/12/04 16:49:01;;;;;;;213.60;91.50;;;;;;;;;;5047920;28;20033;-81
2021/12/04 16:59:17;;;;;;;437.00;135.30;;;;;;;;;;5052493;28;20017;-81
2021/12/04 17:01:45;;;;;;;335.50;127.85;;;;;;;;;;5035594;28;20032;-81
2021/12/04 17:04:44;;;;;;;412.65;137.48;;;;;;;;;;5034063;28;20028;-81
2021/12/04 17:07:10;;;;;;;270.08;110.75;;;;;;;;;;5047527;28;20049;-81
2021/12/04 17:09:41;;;;;;;325.35;127.43;;;;;;;;;;5053280;28;20021;-81
2021/12/04 17:12:07;;;;;;;305.85;119.07;;;;;;;;;;5053481;28;20402;-81
2021/12/04 17:14:42;;;;;;;340.13;124.35;;;;;;;;;;5052357;28;20052;-81
2021/12/04 17:17:11;;;;;;;343.58;127.00;;;;;;;;;;5061372;28;20025;-81
2021/12/04 17:19:42;;;;;;;288.00;120.10;;;;;;;;;;5032130;28;20027;-81
2021/12/04 17:22:09;;;;;;;245.45;109.03;;;;;;;;;;5045481;28;20115;-81
2021/12/04 17:24:37;;;;;;;240.50;105.28;;;;;;;;;;5037649;28;20364;-81
2021/12/04 17:27:07;;;;;;;272.33;119.15;;;;;;;;;;5067609;28;20029;-81
2021/12/04 17:29:36;;;;;;;269.02;118.80;;;;;;;;;;5053990;28;20025;-81
2021/12/04 17:32:04;;;;;;;265.08;119.45;;;;;;;;;;5034212;28;20514;-81
2021/12/04 17:34:33;;;;;;;259.42;112.43;;;;;;;;;;5023833;28;20037;-81
2021/12/04 17:37:00;;;;;;;261.63;113.63;;;;;;;;;;5064498;28;20386;-81
2021/12/04 17:39:52;;;;;;;242.25;105.97;;;;;;;;;;5054307;28;20070;-81
2021/12/04 17:42:23;;;;;;;257.38;111.13;;;;;;;;;;4957827;28;20039;-81
2021/12/04 17:44:50;;;;;;;259.25;113.75;;;;;;;;;;5054344;28;20040;-81
2021/12/04 17:47:21;;;;;;;275.17;116.22;;;;;;;;;;5053915;28;20602;-81
2021/12/04 17:49:49;;;;;;;270.48;114.35;;;;;;;;;;5049245;28;20426;-82
2021/12/04 17:52:15;;;;;;;263.63;114.35;;;;;;;;;;5053577;28;20450;-81
2021/12/04 17:54:42;;;;;;;246.57;110.32;;;;;;;;;;5033771;28;20113;-81
2021/12/04 17:57:08;;;;;;;238.02;107.18;;;;;;;;;;5018101;28;20052;-81
2021/12/04 17:59:35;;;;;;;281.52;108.20;;;;;;;;;;5056090;28;20087;-81
2021/12/04 18:02:08;;;;;;;251.00;104.93;;;;;;;;;;5053128;28;20134;-81
2021/12/04 18:04:36;;;;;;;216.93;93.88;;;;;;;;;;5036073;28;20116;-81
2021/12/04 18:07:05;;;;;;;266.35;107.95;;;;;;;;;;5043262;28;20025;-81
2021/12/04 18:09:34;;;;;;;252.77;103.43;;;;;;;;;;5044683;28;20467;-81
2021/12/04 18:12:11;;;;;;;257.50;106.05;;;;;;;;;;5033202;28;20498;-81
2021/12/04 18:14:38;;;;;;;248.27;99.95;;;;;;;;;;5035348;28;20029;-81
2021/12/04 18:17:08;;;;;;;200.25;87.80;;;;;;;;;;5054712;28;20719;-81
2021/12/04 18:19:36;;;;;;;211.45;90.82;;;;;;;;;;5024701;28;20087;-81
2021/12/04 18:22:32;;;;;;;219.52;89.47;;;;;;;;;;5049784;28;20026;-81
2021/12/04 18:25:01;;;;;;;202.68;85.32;;;;;;;;;;4995928;28;20633;-82
2021/12/04 18:27:27;;;;;;;189.82;82.75;;;;;;;;;;5055987;28;20095;-81
2021/12/04 18:29:55;;;;;;;229.43;94.30;;;;;;;;;;5032833;28;20025;-82
2021/12/04 18:32:21;;;;;;;210.73;88.43;;;;;;;;;;5037918;28;20028;-81
2021/12/04 18:34:50;;;;;;;249.23;105.75;;;;;;;;;;5052930;28;20025;-81
2021/12/04 18:37:17;;;;;;;234.13;96.05;;;;;;;;;;5061943;28;20036;-81
2021/12/04 18:39:44;;;;;;;216.57;93.35;;;;;;;;;;5034682;28;20018;-81
2021/12/04 18:42:11;;;;;;;241.38;97.72;;;;;;;;;;5049072;28;20460;-81
2021/12/04 18:44:39;;;;;;;271.05;106.57;;;;;;;;;;5064803;28;20387;-81
2021/12/04 18:47:09;;;;;;;265.65;104.68;;;;;;;;;;5049241;28;20388;-81
2021/12/04 18:49:36;;;;;;;339.83;123.75;;;;;;;;;;5054008;28;20035;-81
2021/12/04 18:52:02;;;;;;;279.95;116.47;;;;;;;;;;5050952;28;20056;-81
2021/12/04 18:54:29;;;;;;;237.52;100.03;;;;;;;;;;5036442;28;20029;-82
2021/12/04 18:57:04;;;;;;;237.57;108.82;;;;;;;;;;5043300;28;20033;-82
2021/12/04 18:59:31;;;;;;;257.02;111.32;;;;;;;;;;5054003;28;20053;-82
2021/12/04 19:02:08;;;;;;;242.05;105.15;;;;;;;;;;5041370;28;20112;-82
2021/12/04 19:04:34;;;;;;;242.32;104.40;;;;;;;;;;5056674;28;20032;-82
2021/12/04 19:07:05;;;;;;;228.00;105.40;;;;;;;;;;5047441;28;20715;-82
2021/12/04 19:09:31;;;;;;;261.65;113.15;;;;;;;;;;5052736;28;20020;-82
2021/12/04 19:12:00;;;;;;;251.35;108.95;;;;;;;;;;5041816;28;20033;-82
2021/12/04 19:14:28;;;;;;;278.20;119.18;;;;;;;;;;5050617;28;20029;-82
2021/12/04 19:16:54;;;;;;;281.48;120.43;;;;;;;;;;5047283;28;20037;-82
2021/12/04 19:19:37;;;;;;;277.25;116.20;;;;;;;;;;5052602;28;20036;-82
2021/12/04 19:22:04;;;;;;;294.42;119.20;;;;;;;;;;5055032;28;20502;-82
2021/12/04 19:24:32;;;;;;;283.83;120.50;;;;;;;;;;5038845;28;20021;-82
2021/12/04 19:27:07;;;;;;;276.60;117.57;;;;;;;;;;5033957;28;20029;-82
2021/12/04 19:29:36;;;;;;;306.33;124.72;;;;;;;;;;5035531;28;20025;-82
2021/12/04 19:32:13;;;;;;;313.65;131.68;;;;;;;;;;5042989;28;20028;-81
2021/12/04 19:52:04;;;;;;;343.17;142.43;;;;;;;;;;5052557;28;20041;-82
2021/12/04 19:57:21;;;;;;;407.88;152.25;;;;;;;;;;5052808;28;20029;-82
2021/12/04 19:59:53;;;;;;;407.10;152.73;;;;;;;;;;5067701;28;20021;-82
2021/12/04 20:15:32;;;;;;;318.95;134.52;;;;;;;;;;5046412;28;20059;-82
2021/12/04 20:17:59;;;;;;;409.42;152.90;;;;;;;;;;5031462;28;20029;-82
2021/12/04 20:20:27;;;;;;;308.02;135.13;;;;;;;;;;5067185;28;20395;-82
2021/12/04 20:22:55;;;;;;;369.70;143.80;;;;;;;;;;5052704;28;20021;-82
2021/12/04 20:25:24;;;;;;;333.00;135.27;;;;;;;;;;5048184;28;20032;-81
2021/12/04 20:27:56;;;;;;;362.42;140.70;;;;;;;;;;5051314;28;20383;-82
2021/12/04 20:31:01;;;;;;;401.90;149.23;;;;;;;;;;5047424;28;20037;-82
2021/12/04 21:13:35;;;;;;;381.15;137.60;;;;;;;;;;5008229;28;20504;-82
2021/12/04 21:49:20;;;;;;;321.75;119.68;;;;;;;;;;5004909;28;20433;-82
2021/12/04 21:49:29;;;;;;;318.00;124.72;;;;;;;;;;5004891;28;20384;-82
2021/12/04 21:51:56;;;;;;;296.20;117.25;;;;;;;;;;5024350;28;20045;-82
2021/12/04 21:54:22;;;;;;;293.17;115.38;;;;;;;;;;5033865;28;20036;-82
2021/12/04 22:10:44;;;;;;;312.25;120.00;;;;;;;;;;5033107;28;20072;-82
2021/12/04 22:18:33;;;;;;;297.38;116.20;;;;;;;;;;5034335;28;20024;-82
2021/12/04 23:14:38;;;;;;;215.15;87.82;;;;;;;;;;5024315;28;20068;-82
2021/12/04 23:17:44;;;;;;;250.57;97.07;;;;;;;;;;5032414;28;20045;-81
2021/12/04 23:42:07;;;;;;;236.80;89.97;;;;;;;;;;5029817;28;20488;-83
2021/12/04 23:51:10;;;;;;;236.40;86.22;;;;;;;;;;5032961;28;20037;-83
2021/12/04 23:54:19;;;;;;;197.85;77.72;;;;;;;;;;5028616;28;20026;-83
